Latest Coastal Weather Observations for Albion Park

IDN60701

Issued at 2:02 pm EDT Thursday 24 October 2019 (issued every 10 minutes, with the page automatically refreshed every 10 minutes)

About coastal observations | Map of coastal stations | Coastal observations for NSW | Marine services | Other Formats
Station Details ID: 068241 Name: WOLLONGONG AIRPORT Lat: -34.56 Lon: 150.79 Height: 8.0 m
Data from the previous 72 hours. | See also: Recent months at Albion Park
Date/Time
EDT
Wind Sea
Height
m
Swell Vis
km
Cloud Weather Temp
°C
Press
hPa
Rain since
9am
mm
Dir  Spd
kts
Gust
kts
Height
m
Period
s
Dir
24/02:00pm NE 8 11 - - - - 10 Clear - 23.3 1016.7 0.0
24/01:30pm NE 9 12 - - - - 10 - - 23.7 1016.9 0.0
24/01:00pm NE 10 13 - - - - 10 - - 23.5 1017.1 0.0
24/12:30pm NE 9 13 - - - - 10 - - 23.4 1017.6 0.0
24/12:00pm NE 9 13 - - - - 10 - - 23.6 1017.9 0.0
24/11:30am NE 9 11 - - - - 10 - - 23.7 1018.2 0.0
24/11:00am NE 7 9 - - - - 10 - - 23.7 1018.4 0.0
24/10:30am NE 7 9 - - - - 10 - - 22.9 1018.5 0.0
24/10:00am ENE 5 7 - - - - 10 - - 22.5 1018.8 0.0
24/09:30am ENE 5 7 - - - - 10 - - 21.4 1018.9 0.0
24/09:00am NNE 5 6 - - - - 10 - - 20.0 1018.8 0.0
24/08:30am CALM 0 0 - - - - 10 - - 18.5 1018.8 0.0
24/08:00am CALM 0 0 - - - - 10 - - 16.6 1018.7 0.0
24/07:30am CALM 0 0 - - - - 10 Partly cloudy - 14.3 1018.7 0.0
24/07:29am CALM 0 0 - - - - 10 Partly cloudy - 14.2 1018.7 0.0
24/07:00am WSW 1 3 - - - - 8 Partly cloudy - 12.7 1018.4 0.0
24/06:54am WSW 2 4 - - - - 6 Partly cloudy - 12.6 1018.3 0.0
24/06:30am W 3 3 - - - - 0.6 Cloudy - 11.7 1018.1 0.0
24/06:00am SW 1 4 - - - - 4 Partly cloudy - 11.0 1017.9 0.0
24/05:58am CALM 0 3 - - - - 5 Partly cloudy - 11.2 1017.9 0.0
24/05:44am SW 1 3 - - - - 2 Partly cloudy - 11.4 1017.8 0.0
24/05:30am CALM 0 2 - - - - 10 Partly cloudy - 11.6 1017.6 0.0
24/05:26am SW 1 3 - - - - 8 Partly cloudy - 11.6 1017.6 0.0
24/05:18am SW 3 3 - - - - 10 Partly cloudy - 11.5 1017.6 0.0
24/05:00am SW 3 4 - - - - 2 Partly cloudy - 12.0 1017.5 0.0
24/04:53am SW 3 4 - - - - 5 Partly cloudy - 11.7 1017.5 0.0
24/04:51am SW 3 4 - - - - 10 Partly cloudy - 11.6 1017.5 0.0
24/04:50am SW 3 4 - - - - 10 Partly cloudy - 11.6 1017.5 0.0
24/04:43am SW 3 4 - - - - 10 Partly cloudy - 12.0 1017.4 0.0
24/04:30am SW 3 4 - - - - 4 Partly cloudy - 12.0 1017.4 0.0
24/04:28am SW 3 4 - - - - 3 Partly cloudy - 11.9 1017.4 0.0
24/04:11am W 4 5 - - - - 10 Partly cloudy - 11.5 1017.5 0.0
24/04:00am WNW 4 5 - - - - 2 Partly cloudy - 11.5 1017.5 0.0
24/03:51am WNW 4 5 - - - - 1 Partly cloudy - 12.0 1017.4 0.0
24/03:39am W 2 3 - - - - 4 - - 12.1 1017.5 0.0
24/03:30am W 3 5 - - - - 10 - - 11.5 1017.5 0.0
24/03:11am CALM 0 0 - - - - 10 - - 12.1 1017.5 0.0
24/03:00am CALM 0 0 - - - - 4 - - 12.5 1017.6 0.0
24/02:40am CALM 0 0 - - - - 5 - - 13.1 1017.8 0.0
24/02:30am CALM 0 0 - - - - 10 - - 13.3 1017.8 0.0
24/02:00am CALM 0 0 - - - - 10 - - 13.4 1017.9 0.0
24/01:30am S 3 4 - - - - 10 - - 14.0 1018.1 0.0
24/01:00am WSW 3 4 - - - - 10 - - 14.0 1018.6 0.0
24/12:30am WNW 4 5 - - - - 10 - - 14.9 1018.9 0.0
24/12:00am WNW 3 4 - - - - 10 - - 15.5 1019.0 0.0
 
Date/Time
EDT
Wind Sea
Height
m
Swell Vis
km
Cloud Weather Temp
°C
Press
hPa
Rain since
9am
mm
Dir  Spd
kts
Gust
kts
Height
m
Period
s
Dir
23/11:30pm W 6 7 - - - - 10 - - 15.7 1019.2 0.0
23/11:00pm SSE 5 7 - - - - 10 - - 17.5 1019.1 0.0
23/10:30pm CALM 0 1 - - - - 10 - - 17.3 1018.8 0.0
23/10:00pm SE 5 7 - - - - 10 - - 16.5 1018.5 0.0
23/09:30pm S 2 4 - - - - 10 - - 16.5 1018.3 0.0
23/09:00pm CALM 0 0 - - - - 10 - - 17.4 1018.2 0.0
23/08:30pm S 2 4 - - - - 10 - - 18.3 1017.9 0.0
23/08:00pm E 4 6 - - - - 10 - - 19.1 1017.9 0.0
23/07:30pm ESE 5 7 - - - - 10 - - 20.0 1017.7 0.0
23/07:00pm ENE 8 11 - - - - 10 - - 20.3 1017.4 0.0
23/06:30pm ENE 10 12 - - - - 10 - - 21.0 1017.3 0.0
23/06:00pm ENE 10 14 - - - - 10 - - 21.3 1017.1 0.0
23/05:30pm ENE 10 13 - - - - 10 - - 22.5 1016.9 0.0
23/05:00pm ENE 9 12 - - - - 10 - - 23.3 1016.9 0.0
23/04:30pm ENE 12 16 - - - - 10 - - 22.6 1017.0 0.0
23/04:00pm NE 14 18 - - - - 10 - - 22.8 1017.3 0.0
23/03:30pm ENE 14 19 - - - - 10 - - 22.1 1017.5 0.0
23/03:00pm ENE 15 19 - - - - 10 - - 23.0 1017.7 0.0
23/02:30pm ENE 14 19 - - - - 10 - - 22.9 1018.2 0.0
23/02:00pm ENE 13 18 - - - - 10 - - 23.3 1018.7 0.0
23/01:30pm ENE 16 22 - - - - 10 - - 23.1 1018.9 0.0
23/01:00pm ENE 16 20 - - - - 10 - - 23.6 1019.3 0.0
23/12:30pm NE 17 22 - - - - 10 - - 22.7 1019.7 0.0
23/12:00pm NE 16 20 - - - - 10 - - 22.8 1020.3 0.0
23/11:30am ENE 14 17 - - - - 10 - - 23.4 1020.9 0.0
23/11:00am NNE 9 13 - - - - 10 - - 25.0 1021.4 0.0
23/10:30am NNE 9 14 - - - - 10 - - 24.1 1022.0 0.0
23/10:00am N 8 13 - - - - 10 - - 22.8 1022.5 0.0
23/09:30am NNE 9 11 - - - - 10 - - 21.7 1022.8 0.0
23/09:00am N 9 15 - - - - 10 - - 20.9 1023.1 0.0
23/08:30am N 9 13 - - - - 10 - - 19.9 1023.3 0.0
23/08:00am N 8 11 - - - - 10 - - 18.8 1023.4 0.0
23/07:30am WSW 1 4 - - - - 10 - - 15.0 1023.4 0.0
23/07:00am SW 1 5 - - - - 10 - - 11.9 1023.5 0.0
23/06:30am CALM 0 0 - - - - 10 - - 10.7 1023.4 0.0
23/06:00am CALM 0 0 - - - - 10 - - 10.2 1023.3 0.0
23/05:30am CALM 0 0 - - - - 10 - - 11.4 1023.4 0.0
23/05:00am CALM 0 0 - - - - 10 - - 11.5 1023.3 0.0
23/04:30am CALM 0 0 - - - - 10 - - 11.6 1023.2 0.0
23/04:00am SW 1 3 - - - - 10 - - 12.1 1023.3 0.0
23/03:30am CALM 0 0 - - - - 10 - - 12.4 1023.4 0.0
23/03:00am SW 2 4 - - - - 10 Mostly clear - 12.8 1023.6 0.0
23/02:56am SW 3 4 - - - - 10 Partly cloudy - 12.9 1023.6 0.0
23/02:30am SW 2 3 - - - - 10 Partly cloudy - 13.4 1023.8 0.0
23/02:07am CALM 0 0 - - - - 10 Partly cloudy - 13.5 1023.9 0.0
23/02:00am CALM 0 0 - - - - 10 Partly cloudy - 13.5 1024.0 0.0
23/01:30am SW 4 4 - - - - 10 Partly cloudy - 13.3 1024.4 0.0
23/01:00am SW 4 4 - - - - 10 Partly cloudy - 13.4 1024.9 0.0
23/12:30am CALM 0 0 - - - - 10 Partly cloudy - 13.7 1025.3 0.0
23/12:00am CALM 0 0 - - - - 10 Partly cloudy - 14.5 1025.5 0.0
 
Date/Time
EDT
Wind Sea
Height
m
Swell Vis
km
Cloud Weather Temp
°C
Press
hPa
Rain since
9am
mm
Dir  Spd
kts
Gust
kts
Height
m
Period
s
Dir
22/11:30pm SW 1 3 - - - - 10 Partly cloudy - 15.1 1025.6 0.0
22/11:00pm SW 3 4 - - - - 10 Partly cloudy - 14.7 1025.5 0.0
22/10:30pm SW 4 5 - - - - 10 Cloudy - 15.4 1025.5 0.0
22/10:00pm SE 2 3 - - - - 10 Partly cloudy - 15.9 1025.6 0.0
22/09:30pm ESE 3 4 - - - - 10 Partly cloudy - 17.1 1025.6 0.0
22/09:03pm ESE 4 5 - - - - 10 Partly cloudy - 17.4 1025.4 0.0
22/09:00pm ESE 4 5 - - - - 10 Mostly cloudy - 17.4 1025.4 0.0
22/08:30pm ESE 4 6 - - - - 10 Cloudy - 18.2 1024.9 0.0
22/08:00pm ESE 4 6 - - - - 10 Partly cloudy - 18.4 1024.6 0.0
22/07:50pm ESE 6 7 - - - - 10 Partly cloudy - 18.4 1024.4 0.0
22/07:30pm E 5 7 - - - - 10 - - 18.4 1024.3 0.0
22/07:00pm ENE 7 9 - - - - 10 Partly cloudy - 19.1 1023.9 0.0
22/06:30pm ENE 8 11 - - - - 10 - - 19.8 1023.4 0.0
22/06:00pm ENE 9 11 - - - - 10 - - 20.3 1023.0 0.0
22/05:30pm NE 10 11 - - - - 10 - - 20.7 1022.8 0.0
22/05:00pm NE 9 13 - - - - 10 - - 21.4 1022.4 0.0
22/04:30pm ENE 10 15 - - - - 10 - - 21.3 1022.1 0.0
22/04:00pm NE 11 14 - - - - 10 - - 21.6 1022.0 0.0
22/03:30pm NE 12 15 - - - - 10 - - 21.7 1022.1 0.0
22/03:00pm NE 11 14 - - - - 10 - - 21.9 1022.2 0.0
22/02:30pm NE 11 15 - - - - 10 - - 21.9 1022.6 0.0
22/02:00pm NE 11 15 - - - - 10 - - 22.1 1022.9 0.0
22/01:30pm ENE 11 14 - - - - 10 - - 22.2 1023.2 0.0
22/01:00pm NE 11 14 - - - - 10 - - 22.4 1023.3 0.0
22/12:30pm ENE 11 13 - - - - 10 - - 22.1 1023.5 0.0
22/12:00pm NE 11 13 - - - - 10 - - 21.8 1023.9 0.0
22/11:30am NE 11 13 - - - - 10 - - 22.0 1024.3 0.0
22/11:00am NE 10 13 - - - - 10 - - 22.0 1024.7 0.0
22/10:30am NE 8 9 - - - - 10 - - 21.3 1025.0 0.0
22/10:00am NE 6 8 - - - - 10 - - 20.7 1025.3 0.0
22/09:30am ENE 6 8 - - - - 10 - - 19.6 1025.4 0.0
22/09:00am NE 5 6 - - - - 10 - - 18.5 1025.4 0.0
22/08:30am NNE 4 6 - - - - 10 - - 17.2 1025.4 0.0
22/08:00am CALM 0 0 - - - - 10 - - 14.8 1025.5 0.0
22/07:30am CALM 0 0 - - - - 10 - - 11.2 1025.3 0.0
22/07:00am W 2 4 - - - - 10 - - 8.9 1025.1 0.0
22/06:41am WSW 2 4 - - - - 10 - - 7.6 1025.0 0.0
22/06:30am CALM 0 4 - - - - 5 - - 7.5 1025.0 0.0
22/06:25am CALM 0 0 - - - - 5 - - 7.5 1024.9 0.0
22/06:00am CALM 0 0 - - - - 10 - - 7.5 1024.9 0.0
22/05:30am CALM 0 0 - - - - 10 - - 7.5 1024.6 0.0
22/05:00am CALM 0 0 - - - - 10 - - 7.9 1024.4 0.0
22/04:30am CALM 0 0 - - - - 10 - - 8.0 1024.3 0.0
22/04:00am CALM 0 0 - - - - 10 - - 8.5 1024.4 0.0
22/03:30am WSW 1 3 - - - - 10 - - 8.4 1024.8 0.0
22/03:00am WSW 2 4 - - - - 10 - - 8.4 1024.9 0.0
22/02:30am CALM 0 0 - - - - 10 - - 9.0 1025.1 0.0
22/02:00am WSW 3 4 - - - - 10 - - 8.9 1025.5 0.0
22/01:30am W 2 3 - - - - 10 - - 9.5 1025.9 0.0
22/01:00am W 2 4 - - - - 10 - - 9.7 1026.2 0.0
22/12:30am CALM 0 0 - - - - 10 - - 10.3 1026.5 0.0
22/12:00am CALM 0 1 - - - - 10 - - 10.8 1026.7 0.0
 
Date/Time
EDT
Wind Sea
Height
m
Swell Vis
km
Cloud Weather Temp
°C
Press
hPa
Rain since
9am
mm
Dir  Spd
kts
Gust
kts
Height
m
Period
s
Dir
21/11:30pm WNW 4 5 - - - - 10 - - 11.0 1026.6 0.0
21/11:00pm W 4 5 - - - - 10 - - 11.0 1026.6 0.0
21/10:30pm W 4 5 - - - - 10 - - 11.5 1026.6 0.0
21/10:00pm W 5 6 - - - - 10 - - 12.3 1026.8 0.0
21/09:30pm W 6 6 - - - - 10 - - 12.8 1026.8 0.0
21/09:00pm W 4 6 - - - - 10 - - 12.7 1026.7 0.0
21/08:30pm WSW 3 5 - - - - 10 - - 14.2 1026.6 0.0
21/08:00pm ESE 3 4 - - - - 10 - - 15.8 1026.5 0.0
21/07:30pm E 4 5 - - - - 10 - - 17.3 1026.2 0.0
21/07:00pm E 5 7 - - - - 10 - - 18.0 1025.7 0.0
21/06:30pm ENE 6 9 - - - - 10 - - 19.0 1025.4 0.0
21/06:00pm ENE 8 11 - - - - 10 - - 19.5 1025.1 0.0
21/05:30pm ENE 8 11 - - - - 10 - - 19.9 1024.9 0.0
21/05:00pm E 9 11 - - - - 10 - - 20.2 1024.7 0.0
21/04:30pm ENE 8 12 - - - - 10 - - 20.8 1024.7 0.0
21/04:00pm NE 10 13 - - - - 10 - - 20.8 1024.7 0.0
21/03:30pm NE 11 13 - - - - 10 - - 21.1 1024.9 0.0
21/03:00pm NE 10 13 - - - - 10 - - 21.1 1025.1 0.0
21/02:30pm NE 11 13 - - - - 10 - - 21.4 1025.3 0.0

Other formats

Comma delimited format used in spreadsheet applications
http://www.bom.gov.au/fwo/IDN60701/IDN60701.95748.axf

JavaScript Object Notation format (JSON) in row-major order
http://www.bom.gov.au/fwo/IDN60701/IDN60701.95748.json

Data quality

Most of these data are generated automatically and are frequently updated. Quality checks on data are not normally performed. It is possible for incorrect values to appear. Refer to information at About Latest Weather Observations and please check the disclaimer before using these data.